Time,TemperatureF,DewpointF,PressureIn,WindDirection,WindDirectionDegrees,WindSpeedMPH,WindSpeedGustMPH,Humidity,HourlyPrecipIn,Conditions,Clouds,dailyrainin,SolarRadiationWatts/m^2,SoftwareType,DateUTC
2013-12-25 00:03:00,44.4,-99.9,30.29,NNE,27,0.0,1.0,0,0.00,,,0.01,0,weatherlink.com 1.10,2013-12-25 08:03:00,
2013-12-25 00:18:00,45.1,-99.9,30.29,NNE,27,0.0,2.0,0,0.00,,,0.01,0,weatherlink.com 1.10,2013-12-25 08:18:00,
2013-12-25 00:33:00,45.1,-99.9,30.29,NNE,27,0.0,1.0,0,0.00,,,0.01,0,weatherlink.com 1.10,2013-12-25 08:33:00,
2013-12-25 00:48:00,45.0,-99.9,30.29,NNE,27,0.0,1.0,0,0.00,,,0.01,0,weatherlink.com 1.10,2013-12-25 08:48:00,
2013-12-25 01:03:00,43.6,-99.9,30.30,NNE,27,1.0,1.0,0,0.00,,,0.01,0,weatherlink.com 1.10,2013-12-25 09:03:00,
2013-12-25 01:18:00,43.5,-99.9,30.30,NNE,27,1.0,2.0,0,0.00,,,0.01,0,weatherlink.com 1.10,2013-12-25 09:18:00,
2013-12-25 01:33:00,42.9,-99.9,30.29,NNE,27,0.0,1.0,0,0.00,,,0.01,0,weatherlink.com 1.10,2013-12-25 09:33:00,
2013-12-25 01:48:00,42.6,-99.9,30.30,NNE,27,2.0,3.0,0,0.00,,,0.01,0,weatherlink.com 1.10,2013-12-25 09:48:00,
2013-12-25 02:04:00,42.7,-99.9,30.30,NNE,27,4.0,5.0,0,0.00,,,0.01,0,weatherlink.com 1.10,2013-12-25 10:04:00,
2013-12-25 02:19:00,42.9,-99.9,30.30,NNE,27,1.0,4.0,0,0.00,,,0.00,0,weatherlink.com 1.10,2013-12-25 10:19:00,
2013-12-25 02:34:00,43.9,-99.9,30.30,NNE,27,1.0,3.0,0,0.00,,,0.00,0,weatherlink.com 1.10,2013-12-25 10:34:00,
2013-12-25 02:49:00,43.9,-99.9,30.30,NNE,27,1.0,2.0,0,0.00,,,0.00,0,weatherlink.com 1.10,2013-12-25 10:49:00,
2013-12-25 03:04:00,43.1,-12.0,30.30,NNE,27,3.0,3.0,9,0.00,,,0.00,0,weatherlink.com 1.10,2013-12-25 11:04:00,
2013-12-25 03:19:00,42.8,-15.0,30.29,NNE,27,0.0,4.0,8,0.00,,,0.00,0,weatherlink.com 1.10,2013-12-25 11:19:00,
2013-12-25 03:34:00,42.0,-9.0,30.29,NNE,27,1.0,4.0,11,0.00,,,0.00,0,weatherlink.com 1.10,2013-12-25 11:34:00,
2013-12-25 03:49:00,43.2,-10.0,30.29,NNE,27,3.0,5.0,10,0.00,,,0.00,0,weatherlink.com 1.10,2013-12-25 11:49:00,
2013-12-25 04:04:00,43.3,11.0,30.28,NNE,27,2.0,5.0,27,0.00,,,0.00,0,weatherlink.com 1.10,2013-12-25 12:04:00,
2013-12-25 04:19:00,43.7,18.0,30.28,NNE,27,3.0,6.0,35,0.00,,,0.00,0,weatherlink.com 1.10,2013-12-25 12:19:00,
2013-12-25 04:34:00,44.6,29.0,30.28,NNE,27,2.0,6.0,54,0.00,,,0.00,0,weatherlink.com 1.10,2013-12-25 12:34:00,
2013-12-25 04:49:00,42.8,26.0,30.29,NNE,27,0.0,1.0,52,0.00,,,0.00,0,weatherlink.com 1.10,2013-12-25 12:49:00,
2013-12-25 05:04:00,42.0,20.0,30.29,NNE,27,0.0,3.0,41,0.00,,,0.00,0,weatherlink.com 1.10,2013-12-25 13:04:00,
2013-12-25 05:20:00,41.5,21.0,30.29,NNE,27,1.0,3.0,44,0.00,,,0.00,0,weatherlink.com 1.10,2013-12-25 13:20:00,
2013-12-25 05:35:00,41.1,17.0,30.29,NNE,27,1.0,3.0,38,0.00,,,0.00,0,weatherlink.com 1.10,2013-12-25 13:35:00,
2013-12-25 05:50:00,41.4,17.0,30.29,NNE,27,1.0,3.0,38,0.00,,,0.00,0,weatherlink.com 1.10,2013-12-25 13:50:00,
2013-12-25 06:05:00,41.3,19.0,30.30,NNE,27,1.0,3.0,41,0.00,,,0.00,0,weatherlink.com 1.10,2013-12-25 14:05:00,
2013-12-25 06:20:00,41.1,19.0,30.30,NW,324,0.0,5.0,42,0.00,,,0.00,,weatherlink.com 1.10,2013-12-25 14:20:00,
2013-12-25 06:35:00,41.8,25.0,30.30,NNE,27,2.0,3.0,51,0.00,,,0.00,0,weatherlink.com 1.10,2013-12-25 14:35:00,
2013-12-25 06:50:00,40.4,20.0,30.30,NNE,27,2.0,3.0,45,0.00,,,0.00,0,weatherlink.com 1.10,2013-12-25 14:50:00,
2013-12-25 07:05:00,41.2,20.0,30.31,NNE,27,0.0,2.0,42,0.00,,,0.00,0,weatherlink.com 1.10,2013-12-25 15:05:00,
2013-12-25 07:20:00,40.8,23.0,30.31,NNE,27,0.0,2.0,50,0.00,,,0.00,0,weatherlink.com 1.10,2013-12-25 15:20:00,
2013-12-25 07:35:00,41.1,23.0,30.32,NNE,27,3.0,4.0,48,0.00,,,0.00,7,weatherlink.com 1.10,2013-12-25 15:35:00,
2013-12-25 07:50:00,42.8,29.0,30.32,NNE,27,0.0,4.0,58,0.00,,,0.00,35,weatherlink.com 1.10,2013-12-25 15:50:00,
2013-12-25 08:05:00,43.0,31.0,30.32,NNE,27,0.0,2.0,62,0.00,,,0.00,70,weatherlink.com 1.10,2013-12-25 16:05:00,
2013-12-25 08:20:00,44.7,33.0,30.32,NNE,27,1.0,2.0,64,0.00,,,0.00,111,weatherlink.com 1.10,2013-12-25 16:20:00,
2013-12-25 08:36:00,46.2,34.0,30.32,NNE,27,0.0,1.0,63,0.00,,,0.00,158,weatherlink.com 1.10,2013-12-25 16:36:00,
2013-12-25 08:51:00,47.2,35.0,30.33,NNE,27,1.0,0.0,63,0.00,,,0.00,206,weatherlink.com 1.10,2013-12-25 16:51:00,
2013-12-25 09:06:00,48.5,38.0,30.33,NNE,27,1.0,3.0,66,0.00,,,0.00,253,weatherlink.com 1.10,2013-12-25 17:06:00,
2013-12-25 09:21:00,50.2,39.0,30.34,NNE,27,0.0,3.0,66,0.00,,,0.00,287,weatherlink.com 1.10,2013-12-25 17:21:00,
2013-12-25 09:36:00,51.3,40.0,30.34,NNE,27,1.0,3.0,66,0.00,,,0.00,322,weatherlink.com 1.10,2013-12-25 17:36:00,
2013-12-25 09:51:00,52.1,41.0,30.34,NNE,27,0.0,4.0,65,0.00,,,0.00,355,weatherlink.com 1.10,2013-12-25 17:51:00,
2013-12-25 10:06:00,55.1,43.0,30.34,NNE,27,0.0,2.0,65,0.00,,,0.00,387,weatherlink.com 1.10,2013-12-25 18:06:00,
2013-12-25 10:21:00,55.6,44.0,30.34,SSE,150,2.0,5.0,65,0.00,,,0.00,413,weatherlink.com 1.10,2013-12-25 18:21:00,
2013-12-25 10:36:00,54.3,42.0,30.34,SSE,149,1.0,5.0,63,0.00,,,0.00,436,weatherlink.com 1.10,2013-12-25 18:36:00,
2013-12-25 10:51:00,55.0,43.0,30.33,SSE,149,2.0,3.0,64,0.00,,,0.00,455,weatherlink.com 1.10,2013-12-25 18:51:00,
2013-12-25 11:06:00,55.7,44.0,30.32,SSE,149,2.0,3.0,65,0.00,,,0.00,471,weatherlink.com 1.10,2013-12-25 19:06:00,
2013-12-25 11:21:00,55.7,44.0,30.32,SSE,149,1.0,2.0,64,0.00,,,0.00,483,weatherlink.com 1.10,2013-12-25 19:21:00,
2013-12-25 11:36:00,56.3,45.0,30.32,SW,230,4.0,5.0,65,0.00,,,0.00,494,weatherlink.com 1.10,2013-12-25 19:36:00,
2013-12-25 11:51:00,56.1,43.0,30.31,SW,232,3.0,5.0,62,0.00,,,0.00,497,weatherlink.com 1.10,2013-12-25 19:51:00,
2013-12-25 12:07:00,55.8,44.0,30.30,West,275,2.0,6.0,65,0.00,,,0.00,501,weatherlink.com 1.10,2013-12-25 20:07:00,
2013-12-25 12:22:00,55.2,43.0,30.30,West,278,3.0,6.0,63,0.00,,,0.00,497,weatherlink.com 1.10,2013-12-25 20:22:00,
2013-12-25 12:37:00,54.8,41.0,30.29,West,259,1.0,6.0,60,0.00,,,0.00,492,weatherlink.com 1.10,2013-12-25 20:37:00,
2013-12-25 12:52:00,55.1,41.0,30.29,WSW,240,2.0,6.0,59,0.00,,,0.00,483,weatherlink.com 1.10,2013-12-25 20:52:00,
2013-12-25 13:07:00,55.8,40.0,30.28,WSW,237,4.0,6.0,55,0.00,,,0.00,471,weatherlink.com 1.10,2013-12-25 21:07:00,
2013-12-25 13:22:00,55.9,39.0,30.28,SW,236,1.0,6.0,53,0.00,,,0.00,454,weatherlink.com 1.10,2013-12-25 21:22:00,
2013-12-25 13:37:00,55.6,38.0,30.27,SW,235,4.0,6.0,52,0.00,,,0.00,432,weatherlink.com 1.10,2013-12-25 21:37:00,
2013-12-25 13:52:00,55.1,39.0,30.27,West,271,2.0,5.0,55,0.00,,,0.00,410,weatherlink.com 1.10,2013-12-25 21:52:00,
2013-12-25 14:07:00,54.1,36.0,30.27,WNW,290,3.0,8.0,51,0.00,,,0.00,381,weatherlink.com 1.10,2013-12-25 22:07:00,
2013-12-25 14:22:00,54.6,36.0,30.27,WNW,284,2.0,7.0,50,0.00,,,0.00,352,weatherlink.com 1.10,2013-12-25 22:22:00,
2013-12-25 14:37:00,54.8,37.0,30.26,West,281,3.0,5.0,52,0.00,,,0.00,318,weatherlink.com 1.10,2013-12-25 22:37:00,
2013-12-25 14:52:00,55.1,41.0,30.26,WNW,294,4.0,6.0,59,0.00,,,0.00,285,weatherlink.com 1.10,2013-12-25 22:52:00,
2013-12-25 15:07:00,55.9,43.0,30.25,NW,313,3.0,8.0,63,0.00,,,0.00,248,weatherlink.com 1.10,2013-12-25 23:07:00,
2013-12-25 15:23:00,56.3,45.0,30.25,NNW,329,4.0,4.0,65,0.00,,,0.00,211,weatherlink.com 1.10,2013-12-25 23:23:00,
2013-12-25 15:38:00,56.4,45.0,30.25,NW,326,3.0,6.0,65,0.00,,,0.00,174,weatherlink.com 1.10,2013-12-25 23:38:00,
2013-12-25 15:53:00,55.2,43.0,30.26,NW,304,0.0,6.0,63,0.00,,,0.00,132,weatherlink.com 1.10,2013-12-25 23:53:00,
2013-12-25 16:08:00,54.6,41.0,30.26,NW,304,2.0,5.0,60,0.00,,,0.00,88,weatherlink.com 1.10,2013-12-26 00:08:00,
2013-12-25 16:23:00,53.4,37.0,30.26,WNW,302,2.0,4.0,55,0.00,,,0.00,49,weatherlink.com 1.10,2013-12-26 00:23:00,
2013-12-25 16:38:00,52.7,33.0,30.26,WNW,302,0.0,4.0,48,0.00,,,0.00,19,weatherlink.com 1.10,2013-12-26 00:38:00,
2013-12-25 16:53:00,51.7,28.0,30.26,WNW,302,2.0,3.0,40,0.00,,,0.00,9,weatherlink.com 1.10,2013-12-26 00:53:00,
2013-12-25 17:08:00,50.2,19.0,30.26,WNW,302,1.0,1.0,29,0.00,,,0.00,0,weatherlink.com 1.10,2013-12-26 01:08:00,
2013-12-25 17:23:00,49.1,11.0,30.27,WNW,302,0.0,2.0,21,0.00,,,0.00,0,weatherlink.com 1.10,2013-12-26 01:23:00,
2013-12-25 17:39:00,47.9,6.0,30.27,WNW,302,0.0,1.0,18,0.00,,,0.00,0,weatherlink.com 1.10,2013-12-26 01:39:00,
2013-12-25 17:54:00,48.2,-25.0,30.27,WNW,302,1.0,2.0,4,0.00,,,0.00,0,weatherlink.com 1.10,2013-12-26 01:54:00,
2013-12-25 18:09:00,48.2,-30.0,30.27,WNW,302,0.0,2.0,3,0.00,,,0.00,0,weatherlink.com 1.10,2013-12-26 02:09:00,
2013-12-25 18:24:00,46.4,-2.0,30.27,WNW,302,0.0,1.0,13,0.00,,,0.00,0,weatherlink.com 1.10,2013-12-26 02:24:00,
2013-12-25 18:39:00,45.5,-19.0,30.27,WNW,302,0.0,1.0,6,0.00,,,0.00,0,weatherlink.com 1.10,2013-12-26 02:39:00,
2013-12-25 18:54:00,44.9,-16.0,30.28,WNW,302,0.0,0.0,7,0.00,,,0.00,0,weatherlink.com 1.10,2013-12-26 02:54:00,
2013-12-25 19:09:00,44.9,-51.0,30.29,WNW,302,0.0,2.0,1,0.00,,,0.00,0,weatherlink.com 1.10,2013-12-26 03:09:00,
2013-12-25 19:24:00,45.5,-99.9,30.29,WNW,302,0.0,2.0,0,0.00,,,0.00,0,weatherlink.com 1.10,2013-12-26 03:24:00,
2013-12-25 19:39:00,45.1,-99.9,30.28,WNW,302,0.0,2.0,0,0.00,,,0.00,0,weatherlink.com 1.10,2013-12-26 03:39:00,
2013-12-25 19:54:00,44.5,-99.9,30.29,WNW,302,0.0,1.0,0,0.00,,,0.00,0,weatherlink.com 1.10,2013-12-26 03:54:00,
2013-12-25 20:09:00,44.8,-99.9,30.28,WNW,302,1.0,2.0,0,0.00,,,0.00,0,weatherlink.com 1.10,2013-12-26 04:09:00,
2013-12-25 20:24:00,44.6,-99.9,30.29,WNW,302,0.0,1.0,0,0.00,,,0.00,0,weatherlink.com 1.10,2013-12-26 04:24:00,
2013-12-25 20:39:00,44.0,-99.9,30.28,WNW,302,1.0,1.0,0,0.00,,,0.00,0,weatherlink.com 1.10,2013-12-26 04:39:00,
2013-12-25 20:55:00,44.3,-99.9,30.28,WNW,302,0.0,0.0,0,0.00,,,0.00,0,weatherlink.com 1.10,2013-12-26 04:55:00,
2013-12-25 21:10:00,44.2,-99.9,30.28,WNW,302,1.0,2.0,0,0.00,,,0.00,0,weatherlink.com 1.10,2013-12-26 05:10:00,
2013-12-25 21:25:00,44.9,-99.9,30.28,WNW,302,0.0,0.0,0,0.00,,,0.00,0,weatherlink.com 1.10,2013-12-26 05:25:00,
2013-12-25 21:40:00,44.7,-99.9,30.28,WNW,302,0.0,1.0,0,0.01,,,0.01,0,weatherlink.com 1.10,2013-12-26 05:40:00,
2013-12-25 21:55:00,44.3,-99.9,30.28,WNW,302,0.0,1.0,0,0.01,,,0.01,0,weatherlink.com 1.10,2013-12-26 05:55:00,
2013-12-25 22:10:00,44.1,-99.9,30.28,WNW,302,0.0,1.0,0,0.01,,,0.01,0,weatherlink.com 1.10,2013-12-26 06:10:00,
2013-12-25 22:25:00,44.3,-99.9,30.28,WNW,302,2.0,2.0,0,0.01,,,0.01,0,weatherlink.com 1.10,2013-12-26 06:25:00,
2013-12-25 22:40:00,43.7,-99.9,30.28,WNW,302,0.0,3.0,0,0.00,,,0.01,0,weatherlink.com 1.10,2013-12-26 06:40:00,
2013-12-25 22:55:00,43.6,-99.9,30.29,WNW,302,1.0,2.0,0,0.00,,,0.01,0,weatherlink.com 1.10,2013-12-26 06:55:00,
2013-12-25 23:10:00,44.1,-99.9,30.29,WNW,302,0.0,1.0,0,0.00,,,0.01,0,weatherlink.com 1.10,2013-12-26 07:10:00,
2013-12-25 23:25:00,43.8,-99.9,30.29,WNW,302,0.0,2.0,0,0.00,,,0.01,0,weatherlink.com 1.10,2013-12-26 07:25:00,
2013-12-25 23:40:00,44.0,-33.0,30.28,NW,311,4.0,5.0,3,0.00,,,0.01,0,weatherlink.com 1.10,2013-12-26 07:40:00,
2013-12-25 23:55:00,44.6,-7.0,30.28,NW,311,3.0,3.0,11,0.00,,,0.01,0,weatherlink.com 1.10,2013-12-26 07:55:00,